Time;durP1;ratioP1;P1;durP2;ratioP2;P2;SDS_P1;SDS_P2;PMS_P1;PMS_P2;Temp;Humidity;BMP_temperature;BMP_pressure;BME280_temperature;BME280_humidity;BME280_pressure;Samples;Min_cycle;Max_cycle;Signal;HPM_P1;HPM_P2
2023/08/09 00:02:23;;;;;;;2.60;1.90;;;;;;;14.44;65.80;100203.92;103879;277;38414;-73
2023/08/09 00:04:57;;;;;;;2.20;1.90;;;;;;;14.44;65.82;100204.08;103856;277;38593;-73
2023/08/09 00:07:31;;;;;;;3.70;2.20;;;;;;;14.43;65.90;100199.75;103868;277;38882;-72
2023/08/09 00:10:12;;;;;;;2.80;1.80;;;;;;;14.41;66.08;100204.45;103834;277;38252;-74
2023/08/09 00:12:48;;;;;;;2.90;2.20;;;;;;;14.38;66.26;100203.70;103877;277;38306;-74
2023/08/09 00:15:23;;;;;;;2.80;2.10;;;;;;;14.39;66.34;100207.70;103919;277;38488;-73
2023/08/09 00:18:00;;;;;;;2.50;1.90;;;;;;;14.39;66.41;100209.83;103884;277;39621;-73
2023/08/09 00:20:36;;;;;;;3.30;2.20;;;;;;;14.39;66.55;100213.15;103866;277;38381;-73
2023/08/09 00:23:10;;;;;;;5.60;2.20;;;;;;;14.41;66.67;100217.94;103907;277;39028;-74
2023/08/09 00:25:47;;;;;;;2.70;2.10;;;;;;;14.41;66.70;100218.29;103222;277;901873;-75
2023/08/09 00:28:21;;;;;;;3.40;2.00;;;;;;;14.38;66.91;100217.43;103721;277;41745;-73
2023/08/09 00:30:58;;;;;;;3.70;2.10;;;;;;;14.36;67.10;100214.72;103970;277;39307;-74
2023/08/09 00:33:35;;;;;;;2.90;2.50;;;;;;;14.35;67.05;100211.45;103860;277;38815;-73
2023/08/09 00:36:09;;;;;;;3.40;2.20;;;;;;;14.34;67.27;100205.02;103815;279;38586;-75
2023/08/09 00:38:45;;;;;;;2.80;2.50;;;;;;;14.30;67.37;100206.45;103675;279;39000;-73
2023/08/09 00:41:19;;;;;;;3.00;2.00;;;;;;;14.26;67.60;100211.43;103863;279;40125;-73
2023/08/09 00:43:57;;;;;;;4.70;2.10;;;;;;;14.21;67.70;100214.69;103799;278;38390;-74
2023/08/09 00:46:35;;;;;;;3.40;2.40;;;;;;;14.18;67.88;100218.70;103734;279;40823;-76
2023/08/09 00:49:09;;;;;;;3.00;2.00;;;;;;;14.16;68.11;100219.52;103807;278;39092;-72
2023/08/09 00:51:46;;;;;;;3.80;2.00;;;;;;;14.15;68.25;100221.34;103761;279;38803;-74
2023/08/09 00:54:22;;;;;;;3.90;2.00;;;;;;;14.13;68.49;100221.24;103711;279;38985;-74
2023/08/09 00:57:01;;;;;;;2.50;1.90;;;;;;;14.13;68.54;100222.65;103864;279;38255;-75
2023/08/09 00:59:35;;;;;;;4.00;2.20;;;;;;;14.14;68.72;100229.64;103845;278;39317;-74
2023/08/09 01:02:18;;;;;;;2.50;2.10;;;;;;;14.13;68.90;100223.05;103854;279;38759;-73
2023/08/09 01:04:57;;;;;;;3.00;2.00;;;;;;;14.13;69.07;100226.89;103781;279;38096;-73
2023/08/09 01:07:36;;;;;;;5.60;2.30;;;;;;;14.13;69.27;100226.89;103808;279;38532;-73
2023/08/09 01:10:14;;;;;;;2.80;2.00;;;;;;;14.12;69.14;100226.39;103797;279;39371;-73
2023/08/09 01:12:53;;;;;;;2.70;2.10;;;;;;;14.11;69.33;100228.59;103848;279;38543;-75
2023/08/09 01:15:28;;;;;;;3.10;2.00;;;;;;;14.07;69.38;100230.55;103793;279;38614;-73
2023/08/09 01:18:03;;;;;;;2.40;1.70;;;;;;;14.05;69.50;100229.27;103841;279;39538;-73
2023/08/09 01:20:38;;;;;;;3.10;2.20;;;;;;;14.04;69.67;100233.18;103824;279;38785;-73
2023/08/09 01:23:19;;;;;;;3.10;2.20;;;;;;;14.02;69.80;100232.40;103868;279;40194;-73
2023/08/09 01:25:55;;;;;;;3.10;2.30;;;;;;;14.00;69.95;100230.77;103854;279;38676;-74
2023/08/09 01:28:29;;;;;;;3.80;2.10;;;;;;;14.01;70.01;100227.58;103864;279;38780;-74
2023/08/09 01:31:04;;;;;;;4.00;2.00;;;;;;;14.02;70.19;100220.30;103864;279;39851;-73
2023/08/09 01:33:38;;;;;;;2.10;1.90;;;;;;;14.03;70.12;100219.54;103849;278;38256;-75
2023/08/09 01:36:25;;;;;;;3.00;2.10;;;;;;;14.05;70.23;100214.34;103891;278;38332;-74
2023/08/09 01:39:01;;;;;;;2.70;1.90;;;;;;;14.07;70.25;100211.59;103192;279;901069;-72
2023/08/09 01:41:36;;;;;;;3.70;2.10;;;;;;;14.09;70.19;100215.88;103857;278;38239;-73
2023/08/09 01:44:11;;;;;;;2.70;2.00;;;;;;;14.10;70.30;100220.20;103807;279;38251;-73
2023/08/09 01:46:45;;;;;;;2.40;2.10;;;;;;;14.09;70.31;100217.63;103892;279;39789;-73
2023/08/09 01:49:21;;;;;;;2.40;1.70;;;;;;;14.09;70.33;100226.08;103822;279;38525;-76
2023/08/09 01:51:56;;;;;;;3.60;1.80;;;;;;;14.07;70.42;100229.47;103850;279;39724;-73
2023/08/09 01:54:32;;;;;;;3.20;1.90;;;;;;;14.07;70.49;100230.35;103799;279;39841;-73
2023/08/09 01:57:08;;;;;;;4.10;1.90;;;;;;;14.07;70.47;100234.39;103905;279;38485;-73
2023/08/09 01:59:47;;;;;;;3.20;2.20;;;;;;;14.06;70.44;100234.46;103805;279;38932;-73
2023/08/09 02:02:27;;;;;;;2.30;2.00;;;;;;;14.00;70.47;100236.38;103818;278;38529;-75
2023/08/09 02:05:03;;;;;;;3.10;2.10;;;;;;;13.96;70.58;100241.34;103834;279;39648;-73
2023/08/09 02:07:37;;;;;;;3.00;1.70;;;;;;;13.90;70.77;100239.17;103835;279;39169;-73
2023/08/09 02:10:12;;;;;;;2.20;1.90;;;;;;;13.87;70.78;100241.09;103820;278;38677;-73
2023/08/09 02:12:48;;;;;;;2.70;2.00;;;;;;;13.86;70.98;100239.06;103861;279;38217;-74
2023/08/09 02:15:25;;;;;;;3.80;2.40;;;;;;;13.81;71.04;100242.10;103846;279;38860;-74
2023/08/09 02:17:59;;;;;;;3.20;2.10;;;;;;;13.73;71.03;100246.73;103849;279;39318;-74
2023/08/09 02:20:34;;;;;;;3.90;2.00;;;;;;;13.66;71.33;100250.13;103792;279;39993;-74
2023/08/09 02:23:08;;;;;;;4.00;2.10;;;;;;;13.60;71.80;100250.75;103721;281;40976;-73
2023/08/09 02:25:47;;;;;;;3.60;2.30;;;;;;;13.56;72.01;100246.26;103836;279;38621;-73
2023/08/09 02:28:24;;;;;;;3.20;2.20;;;;;;;13.53;72.26;100244.85;103721;279;38301;-73
2023/08/09 02:30:58;;;;;;;3.20;2.00;;;;;;;13.51;72.44;100242.35;103815;279;39011;-73
2023/08/09 02:33:34;;;;;;;4.50;1.90;;;;;;;13.49;72.62;100238.73;103727;279;38277;-74
2023/08/09 02:36:08;;;;;;;3.50;2.30;;;;;;;13.48;72.70;100237.94;103867;279;38696;-73
2023/08/09 02:38:42;;;;;;;4.20;1.60;;;;;;;13.45;72.85;100239.27;103802;278;38808;-73
2023/08/09 02:41:20;;;;;;;3.20;2.10;;;;;;;13.45;73.21;100244.38;103869;279;39849;-73
2023/08/09 02:43:56;;;;;;;3.00;1.90;;;;;;;13.45;73.25;100242.96;103821;279;38893;-73
2023/08/09 02:46:32;;;;;;;2.60;1.70;;;;;;;13.42;73.43;100239.79;103844;278;39730;-72
2023/08/09 02:49:11;;;;;;;2.30;1.90;;;;;;;13.37;73.57;100243.72;103839;278;38822;-73
2023/08/09 02:51:50;;;;;;;2.40;2.20;;;;;;;13.34;73.78;100237.74;103867;279;38548;-73
2023/08/09 02:54:28;;;;;;;3.20;2.10;;;;;;;13.32;73.93;100234.35;103837;278;38268;-73
2023/08/09 02:57:03;;;;;;;3.00;2.40;;;;;;;13.32;74.20;100237.00;103836;279;38708;-75
2023/08/09 02:59:39;;;;;;;2.80;2.20;;;;;;;13.32;74.25;100238.91;103721;278;38505;-73
2023/08/09 03:02:13;;;;;;;3.00;2.20;;;;;;;13.29;74.46;100238.16;103719;279;38504;-74
2023/08/09 03:04:48;;;;;;;4.80;2.10;;;;;;;13.24;74.43;100237.25;103846;279;38235;-74
2023/08/09 03:07:24;;;;;;;2.40;1.90;;;;;;;13.22;74.73;100241.88;103819;279;38275;-74
2023/08/09 03:10:00;;;;;;;2.10;1.80;;;;;;;13.19;74.93;100245.51;103802;279;39780;-74
2023/08/09 03:12:37;;;;;;;2.30;2.00;;;;;;;13.15;74.96;100247.08;103823;278;38436;-73
2023/08/09 03:15:17;;;;;;;3.60;2.10;;;;;;;13.13;75.18;100247.52;103187;278;901993;-73
2023/08/09 03:17:51;;;;;;;2.80;1.80;;;;;;;13.13;75.47;100250.34;103732;279;39924;-73
2023/08/09 03:20:27;;;;;;;2.40;2.00;;;;;;;13.13;75.56;100255.24;103791;279;40988;-73
2023/08/09 03:23:03;;;;;;;3.70;2.20;;;;;;;13.11;75.49;100254.48;103839;278;39414;-73
2023/08/09 03:25:37;;;;;;;2.20;2.00;;;;;;;13.08;75.69;100259.39;103824;279;39558;-75
2023/08/09 03:28:11;;;;;;;3.10;2.50;;;;;;;13.06;75.90;100261.93;103842;279;38645;-73
2023/08/09 03:30:52;;;;;;;5.30;2.30;;;;;;;13.05;76.37;100263.19;103816;279;39677;-73
2023/08/09 03:33:29;;;;;;;2.60;1.90;;;;;;;13.06;76.63;100265.42;103816;279;39281;-73
2023/08/09 03:36:03;;;;;;;3.90;2.20;;;;;;;13.07;76.50;100270.61;103856;279;38529;-73
2023/08/09 03:38:38;;;;;;;2.60;2.20;;;;;;;13.06;76.49;100273.66;103800;279;38502;-73
2023/08/09 03:41:18;;;;;;;2.90;2.00;;;;;;;13.05;76.66;100275.27;103844;279;38700;-73
2023/08/09 03:43:56;;;;;;;4.10;2.30;;;;;;;13.04;76.78;100273.23;102580;279;1717462;-75
2023/08/09 03:46:30;;;;;;;3.90;1.70;;;;;;;13.05;76.92;100269.70;103855;279;39706;-74
2023/08/09 03:49:08;;;;;;;3.00;1.90;;;;;;;13.04;77.08;100274.12;103843;279;39074;-73
2023/08/09 03:51:42;;;;;;;3.70;2.00;;;;;;;13.04;77.34;100270.08;103844;279;39627;-73
2023/08/09 03:54:17;;;;;;;2.30;2.10;;;;;;;13.06;77.34;100267.36;103816;279;39398;-73
2023/08/09 03:56:52;;;;;;;3.80;1.90;;;;;;;13.10;77.51;100268.90;103724;280;39572;-75
2023/08/09 03:59:27;;;;;;;3.70;2.20;;;;;;;13.17;77.76;100269.95;103861;278;38831;-73
2023/08/09 04:02:02;;;;;;;2.50;2.10;;;;;;;13.64;79.91;100268.62;103882;279;38387;-73
2023/08/09 04:04:41;;;;;;;2.90;1.80;;;;;;;14.56;80.41;100271.17;103817;279;38488;-74
2023/08/09 04:07:17;;;;;;;3.70;2.20;;;;;;;15.33;79.11;100268.14;103814;278;38504;-75
2023/08/09 04:09:58;;;;;;;2.60;1.90;;;;;;;15.55;77.31;100278.63;103851;279;38265;-73
2023/08/09 04:12:35;;;;;;;2.40;1.80;;;;;;;15.49;74.29;100283.04;103730;280;39586;-72
2023/08/09 04:15:16;;;;;;;2.70;1.90;;;;;;;15.29;73.05;100280.88;103848;278;39441;-74
2023/08/09 04:17:52;;;;;;;2.30;1.90;;;;;;;15.13;72.85;100280.60;103840;279;38390;-73
2023/08/09 04:20:40;;;;;;;2.50;1.80;;;;;;;15.00;72.78;100287.84;103746;279;175151;-75
2023/08/09 04:23:15;;;;;;;3.60;1.80;;;;;;;14.89;72.95;100292.36;103693;279;39563;-75
2023/08/09 04:25:57;;;;;;;3.00;1.90;;;;;;;14.82;73.06;100291.14;103816;278;38184;-73
2023/08/09 04:28:35;;;;;;;3.30;1.90;;;;;;;14.76;73.05;100290.63;103844;279;38683;-75
2023/08/09 04:31:11;;;;;;;2.20;1.80;;;;;;;14.70;73.10;100293.41;103846;279;39671;-73
2023/08/09 04:33:49;;;;;;;2.50;1.90;;;;;;;14.61;73.05;100292.34;103821;279;38333;-75
2023/08/09 04:36:23;;;;;;;2.30;1.90;;;;;;;14.51;73.07;100288.52;103876;266;38349;-73
2023/08/09 04:38:59;;;;;;;3.50;2.00;;;;;;;14.44;73.47;100282.00;103678;279;38402;-73
2023/08/09 04:41:33;;;;;;;2.20;1.90;;;;;;;14.40;73.86;100286.60;103798;279;38150;-75
2023/08/09 04:44:08;;;;;;;2.80;1.80;;;;;;;14.45;74.40;100292.30;103574;280;175095;-73
2023/08/09 04:46:42;;;;;;;3.70;2.30;;;;;;;14.52;74.60;100297.05;103864;279;39735;-73
2023/08/09 04:49:17;;;;;;;2.90;2.10;;;;;;;14.61;74.87;100301.80;103824;279;39647;-74
2023/08/09 04:51:51;;;;;;;2.50;2.00;;;;;;;14.73;75.07;100309.05;103845;279;38239;-74
2023/08/09 04:54:25;;;;;;;5.40;2.30;;;;;;;14.85;75.29;100308.71;103802;279;38904;-75
2023/08/09 04:57:02;;;;;;;3.20;1.80;;;;;;;15.11;75.66;100305.80;103855;279;39684;-73
2023/08/09 04:59:37;;;;;;;2.60;2.00;;;;;;;15.72;77.72;100303.24;103825;279;39442;-73
2023/08/09 05:02:12;;;;;;;2.90;1.80;;;;;;;16.94;77.31;100305.48;103826;279;38231;-74
2023/08/09 05:04:46;;;;;;;2.80;1.80;;;;;;;18.28;73.84;100301.33;103803;279;39113;-74
2023/08/09 05:07:22;;;;;;;2.90;1.70;;;;;;;19.35;69.62;100301.23;103855;279;38861;-74
2023/08/09 05:09:55;;;;;;;2.50;1.70;;;;;;;20.11;65.11;100293.79;103843;266;38606;-73
2023/08/09 05:12:30;;;;;;;1.80;1.60;;;;;;;20.46;62.35;100289.41;103843;279;38345;-75
2023/08/09 05:15:06;;;;;;;2.20;1.80;;;;;;;20.31;60.31;100291.70;103819;279;38768;-73
2023/08/09 05:17:40;;;;;;;2.80;1.70;;;;;;;20.01;59.59;100291.91;103845;279;38221;-73
2023/08/09 05:20:17;;;;;;;2.20;1.80;;;;;;;19.88;59.64;100292.61;103817;278;38811;-73
2023/08/09 05:22:56;;;;;;;3.50;1.70;;;;;;;19.61;59.46;100294.14;103857;278;38287;-74
2023/08/09 05:25:31;;;;;;;2.00;1.60;;;;;;;19.36;59.62;100295.17;103815;279;38400;-76
2023/08/09 05:28:06;;;;;;;2.30;1.90;;;;;;;19.14;59.76;100296.48;103857;278;38248;-76
2023/08/09 05:30:39;;;;;;;3.20;1.90;;;;;;;18.96;60.39;100300.64;103826;278;38357;-74
2023/08/09 05:33:14;;;;;;;3.60;1.90;;;;;;;18.87;60.78;100299.55;103866;274;38539;-73
2023/08/09 05:35:53;;;;;;;2.00;1.60;;;;;;;19.07;61.47;100295.04;103803;279;38719;-75
2023/08/09 05:38:27;;;;;;;4.70;1.90;;;;;;;19.71;60.52;100292.86;103829;279;39079;-73
2023/08/09 05:41:02;;;;;;;2.10;1.50;;;;;;;20.26;59.25;100294.23;103832;279;38944;-74
2023/08/09 05:43:37;;;;;;;2.50;1.40;;;;;;;20.91;58.34;100290.91;103810;275;38444;-74
2023/08/09 05:46:11;;;;;;;1.90;1.50;;;;;;;21.79;56.93;100291.15;103845;279;39407;-74
2023/08/09 05:48:45;;;;;;;3.00;1.50;;;;;;;22.79;55.56;100293.56;103826;279;39449;-73
2023/08/09 05:51:22;;;;;;;2.60;1.50;;;;;;;23.77;53.24;100293.05;103837;279;39461;-74
2023/08/09 05:53:57;;;;;;;1.70;1.30;;;;;;;24.74;50.62;100295.94;103706;279;38706;-74
2023/08/09 05:56:31;;;;;;;1.40;1.20;;;;;;;25.53;48.06;100298.23;103715;280;38922;-74
2023/08/09 05:59:06;;;;;;;2.60;1.50;;;;;;;26.21;45.70;100298.94;103820;279;39895;-74
2023/08/09 06:01:40;;;;;;;3.70;1.10;;;;;;;26.90;44.04;100298.60;103865;278;40126;-74
2023/08/09 06:04:16;;;;;;;1.60;1.10;;;;;;;27.59;42.62;100299.57;103691;279;38531;-74
2023/08/09 06:06:50;;;;;;;1.20;1.10;;;;;;;28.20;40.65;100304.65;103838;279;38531;-74
2023/08/09 06:09:25;;;;;;;2.60;1.10;;;;;;;28.68;39.29;100304.58;103817;279;38253;-75
2023/08/09 06:12:04;;;;;;;1.90;0.90;;;;;;;29.21;37.94;100301.84;103844;279;39636;-75
2023/08/09 06:14:40;;;;;;;1.70;1.30;;;;;;;29.65;36.69;100303.67;103844;279;38223;-75
2023/08/09 06:17:20;;;;;;;2.10;1.20;;;;;;;30.08;36.34;100305.27;103879;279;39094;-75
2023/08/09 06:20:00;;;;;;;2.80;1.30;;;;;;;30.43;34.84;100309.15;103767;279;38533;-74
2023/08/09 06:22:36;;;;;;;2.20;1.10;;;;;;;30.73;34.02;100312.56;103885;279;38850;-74
2023/08/09 06:25:13;;;;;;;2.90;1.10;;;;;;;31.08;33.16;100311.42;103728;278;187489;-75
2023/08/09 06:27:48;;;;;;;2.10;1.20;;;;;;;31.34;32.77;100306.34;103894;279;39419;-73
2023/08/09 06:30:28;;;;;;;1.40;1.00;;;;;;;31.51;32.37;100306.80;103757;279;40121;-75
2023/08/09 06:33:07;;;;;;;1.70;1.00;;;;;;;31.93;31.80;100300.59;103743;278;188446;-75
2023/08/09 06:35:42;;;;;;;2.70;1.70;;;;;;;32.20;31.59;100303.19;103793;278;38532;-75
2023/08/09 06:38:17;;;;;;;2.70;1.20;;;;;;;32.49;30.64;100304.55;103813;279;39435;-74
2023/08/09 06:40:55;;;;;;;2.30;1.00;;;;;;;32.32;30.27;100306.13;103819;279;39593;-75
2023/08/09 06:43:29;;;;;;;1.20;1.00;;;;;;;32.11;29.58;100307.18;103842;278;38255;-75
2023/08/09 06:46:06;;;;;;;1.90;0.90;;;;;;;32.04;29.50;100302.94;103889;278;38604;-75
2023/08/09 06:48:40;;;;;;;1.30;0.90;;;;;;;31.97;29.81;100306.56;103798;267;39858;-75
2023/08/09 06:51:18;;;;;;;2.70;1.00;;;;;;;32.02;29.69;100305.31;103835;279;39875;-75
2023/08/09 06:53:53;;;;;;;2.20;0.90;;;;;;;32.08;29.07;100308.55;103679;279;38630;-74
2023/08/09 06:56:26;;;;;;;1.90;0.90;;;;;;;31.91;29.04;100313.43;103853;279;38292;-74
2023/08/09 06:59:01;;;;;;;2.40;1.00;;;;;;;31.34;29.59;100322.20;103823;279;38827;-74
2023/08/09 07:01:35;;;;;;;2.80;0.90;;;;;;;30.59;29.97;100320.44;103845;279;38417;-75
2023/08/09 07:04:12;;;;;;;1.60;0.80;;;;;;;29.82;30.77;100319.73;103825;279;38466;-74
2023/08/09 07:06:46;;;;;;;3.10;0.90;;;;;;;29.04;31.38;100317.10;103863;279;39713;-74
2023/08/09 07:09:25;;;;;;;2.60;1.00;;;;;;;28.40;32.59;100317.58;103828;279;38367;-74
2023/08/09 07:12:00;;;;;;;2.40;1.00;;;;;;;27.95;33.74;100308.71;103819;279;38389;-75
2023/08/09 07:14:38;;;;;;;1.20;0.90;;;;;;;27.63;34.79;100313.31;103809;278;38503;-75
2023/08/09 07:17:15;;;;;;;2.10;1.00;;;;;;;27.40;35.27;100311.02;103858;267;39476;-75
2023/08/09 07:19:49;;;;;;;2.30;0.90;;;;;;;27.26;35.32;100314.91;103828;278;38835;-74
2023/08/09 07:22:24;;;;;;;1.60;0.80;;;;;;;27.28;35.46;100320.09;103855;279;38300;-74
2023/08/09 07:24:59;;;;;;;1.50;1.10;;;;;;;27.45;35.18;100320.19;103713;279;38232;-73
2023/08/09 07:27:33;;;;;;;1.30;1.00;;;;;;;27.83;34.73;100315.24;103827;279;38372;-74
2023/08/09 07:30:12;;;;;;;1.50;1.10;;;;;;;28.41;34.27;100320.38;103819;279;39394;-74
2023/08/09 07:32:51;;;;;;;1.70;0.90;;;;;;;28.72;33.62;100321.88;103847;278;39393;-75
2023/08/09 07:35:30;;;;;;;1.30;1.00;;;;;;;28.90;33.23;100326.38;103820;279;38533;-75
2023/08/09 07:38:04;;;;;;;1.70;1.00;;;;;;;28.97;33.23;100329.05;103752;279;187731;-75
2023/08/09 07:40:42;;;;;;;2.30;1.10;;;;;;;29.34;32.84;100324.02;103869;279;38368;-74
2023/08/09 07:43:19;;;;;;;2.90;1.00;;;;;;;29.75;32.41;100326.44;103850;279;38304;-75
2023/08/09 07:45:56;;;;;;;1.50;1.00;;;;;;;30.24;31.54;100326.49;103843;278;38244;-74
2023/08/09 07:48:30;;;;;;;2.60;0.80;;;;;;;30.61;30.73;100329.55;103788;279;38353;-74
2023/08/09 07:51:11;;;;;;;1.20;0.90;;;;;;;30.58;30.67;100331.16;103728;279;38951;-75
2023/08/09 07:53:47;;;;;;;1.80;0.90;;;;;;;30.03;30.23;100333.47;103818;279;38412;-75
2023/08/09 07:56:21;;;;;;;2.20;1.00;;;;;;;29.60;30.94;100328.96;103863;278;38723;-75
2023/08/09 07:58:58;;;;;;;2.00;0.90;;;;;;;29.47;31.43;100329.79;103798;279;38227;-74
2023/08/09 08:01:34;;;;;;;2.40;0.90;;;;;;;29.44;31.86;100330.27;103833;279;38423;-75
2023/08/09 08:04:10;;;;;;;2.50;1.00;;;;;;;30.06;32.06;100324.50;103685;279;39519;-75
2023/08/09 08:06:45;;;;;;;;;;;;;;;30.74;31.05;100322.29;103849;278;38760;-75
2023/08/09 08:09:21;;;;;;;1.30;1.10;;;;;;;31.14;30.84;100320.86;103790;279;38453;-74
2023/08/09 08:11:55;;;;;;;1.80;1.10;;;;;;;31.73;29.52;100326.24;103851;279;39390;-75
2023/08/09 08:14:32;;;;;;;2.90;1.00;;;;;;;32.13;28.66;100326.61;103834;279;38449;-76
2023/08/09 08:17:09;;;;;;;2.00;0.90;;;;;;;31.76;28.53;100329.40;103882;279;38374;-75
2023/08/09 08:19:43;;;;;;;2.00;0.90;;;;;;;31.75;28.39;100339.98;103778;279;39440;-75
2023/08/09 08:22:21;;;;;;;1.70;0.80;;;;;;;31.16;28.10;100337.65;103838;279;38601;-75
2023/08/09 08:24:56;;;;;;;2.10;1.00;;;;;;;30.49;29.04;100336.96;103720;279;174194;-75
2023/08/09 08:27:31;;;;;;;2.40;0.90;;;;;;;30.09;30.31;100337.11;103841;279;38651;-76
2023/08/09 08:30:14;;;;;;;2.50;1.10;;;;;;;30.13;29.89;100333.61;103814;279;38237;-76
2023/08/09 08:32:52;;;;;;;1.60;1.00;;;;;;;29.58;29.84;100335.11;103853;279;38923;-76
2023/08/09 08:35:33;;;;;;;6.70;1.00;;;;;;;29.60;31.02;100335.84;103826;279;39665;-75
2023/08/09 08:38:09;;;;;;;4.30;1.10;;;;;;;29.85;30.57;100339.48;103725;279;39466;-75
2023/08/09 08:40:48;;;;;;;2.20;0.90;;;;;;;30.19;30.30;100340.39;103816;279;38237;-75
2023/08/09 08:43:25;;;;;;;1.80;1.00;;;;;;;30.61;30.25;100340.45;103812;279;38227;-75
2023/08/09 08:45:59;;;;;;;1.60;0.90;;;;;;;31.03;29.66;100341.02;103851;279;38364;-75
2023/08/09 08:48:34;;;;;;;1.20;0.80;;;;;;;31.26;29.16;100339.57;103577;278;174144;-75
2023/08/09 08:51:11;;;;;;;1.50;0.90;;;;;;;31.35;29.10;100340.69;103830;279;39494;-75
2023/08/09 08:53:45;;;;;;;1.40;0.80;;;;;;;30.77;28.81;100344.06;103819;278;38474;-75
2023/08/09 08:56:19;;;;;;;1.30;1.00;;;;;;;30.06;29.09;100344.88;103873;279;39431;-75
2023/08/09 08:58:53;;;;;;;1.50;1.00;;;;;;;29.24;29.38;100340.90;103828;279;38408;-75
2023/08/09 09:01:30;;;;;;;2.30;1.20;;;;;;;28.61;30.77;100347.84;103828;278;39040;-74
2023/08/09 09:04:04;;;;;;;3.00;1.10;;;;;;;28.39;32.43;100346.79;103720;279;38723;-75
2023/08/09 09:06:41;;;;;;;2.10;1.10;;;;;;;28.71;32.76;100347.77;103870;279;38421;-75
2023/08/09 09:09:20;;;;;;;1.50;1.10;;;;;;;28.72;32.32;100347.27;103853;279;38778;-74
2023/08/09 09:11:57;;;;;;;4.30;1.20;;;;;;;28.54;32.00;100347.95;103842;278;38259;-74
2023/08/09 09:14:36;;;;;;;1.90;1.20;;;;;;;28.41;32.45;100346.52;103796;279;39696;-74
2023/08/09 09:17:10;;;;;;;1.80;1.00;;;;;;;28.68;32.33;100342.42;103878;266;38370;-75
2023/08/09 09:19:45;;;;;;;2.50;1.20;;;;;;;29.30;32.70;100329.23;103807;278;38516;-74
2023/08/09 09:22:30;;;;;;;3.30;1.30;;;;;;;30.11;32.34;100333.86;103717;279;38531;-75
2023/08/09 09:25:10;;;;;;;2.00;1.30;;;;;;;30.94;30.95;100340.23;103824;279;39524;-75
2023/08/09 09:27:46;;;;;;;1.80;1.40;;;;;;;31.45;30.32;100339.14;103858;278;39460;-75
2023/08/09 09:30:24;;;;;;;1.70;1.20;;;;;;;31.68;29.49;100339.14;103810;279;38249;-74
2023/08/09 09:33:03;;;;;;;2.30;1.10;;;;;;;31.40;28.81;100344.48;103858;279;38497;-75
2023/08/09 09:35:42;;;;;;;1.80;1.20;;;;;;;30.71;29.30;100344.48;103785;279;38495;-75
2023/08/09 09:38:21;;;;;;;2.80;1.20;;;;;;;30.18;30.24;100348.02;103838;279;38279;-75
2023/08/09 09:40:56;;;;;;;2.20;1.10;;;;;;;29.78;30.49;100350.34;103700;279;38233;-75
2023/08/09 09:43:33;;;;;;;2.60;1.40;;;;;;;29.34;31.13;100343.02;103829;279;38373;-75
2023/08/09 09:46:09;;;;;;;2.10;1.10;;;;;;;28.87;31.59;100349.41;103874;279;39460;-75
2023/08/09 09:48:44;;;;;;;1.20;1.10;;;;;;;28.38;32.03;100343.45;103804;279;38609;-75
2023/08/09 09:51:20;;;;;;;3.70;1.30;;;;;;;27.89;32.62;100344.36;103728;278;189136;-75
2023/08/09 09:53:57;;;;;;;1.70;1.50;;;;;;;27.67;33.65;100342.77;103817;278;38813;-75
2023/08/09 09:56:47;;;;;;;2.00;1.10;;;;;;;27.57;33.16;100340.15;103837;279;38228;-75
2023/08/09 09:59:30;;;;;;;2.20;1.50;;;;;;;27.42;34.01;100341.14;103812;278;38268;-75
2023/08/09 10:02:07;;;;;;;2.90;1.10;;;;;;;27.29;34.51;100342.21;103880;279;38349;-75
2023/08/09 10:04:43;;;;;;;2.20;1.20;;;;;;;27.18;34.29;100339.59;103817;278;39690;-75
2023/08/09 10:07:17;;;;;;;3.30;1.20;;;;;;;27.09;33.90;100334.48;103871;267;39510;-75
2023/08/09 10:09:57;;;;;;;2.90;1.10;;;;;;;26.99;33.63;100339.14;103826;279;39508;-75
2023/08/09 10:12:33;;;;;;;2.60;1.30;;;;;;;26.68;33.97;100336.91;103848;278;38735;-75
2023/08/09 10:15:09;;;;;;;1.30;1.10;;;;;;;26.48;35.01;100335.05;103815;279;39473;-74
2023/08/09 10:17:49;;;;;;;2.20;1.10;;;;;;;26.50;35.69;100331.65;103837;279;38807;-75
2023/08/09 10:20:25;;;;;;;2.20;1.20;;;;;;;26.50;35.51;100327.88;103796;278;38453;-74
2023/08/09 10:23:01;;;;;;;4.90;1.50;;;;;;;26.34;35.58;100322.62;103872;278;39835;-76
2023/08/09 10:25:51;;;;;;;3.10;1.50;;;;;;;26.09;35.57;100323.05;103815;279;38223;-75
2023/08/09 10:28:51;;;;;;;2.60;1.40;;;;;;;25.85;36.32;100320.89;103682;267;39654;-75
2023/08/09 10:31:57;;;;;;;1.50;1.20;;;;;;;26.02;36.50;100317.58;103888;275;38276;-74
2023/08/09 10:34:40;;;;;;;1.50;1.40;;;;;;;26.29;36.61;100316.67;103792;279;38550;-74
2023/08/09 10:37:14;;;;;;;2.00;1.30;;;;;;;26.55;36.44;100321.16;103863;267;38887;-75
2023/08/09 10:39:49;;;;;;;1.70;1.00;;;;;;;26.73;36.05;100321.19;103849;279;38257;-75
2023/08/09 10:42:23;;;;;;;2.10;1.30;;;;;;;26.84;35.25;100317.69;103851;278;39090;-75
2023/08/09 10:45:04;;;;;;;2.20;1.30;;;;;;;26.71;34.63;100314.34;103831;279;38531;-75
2023/08/09 10:47:38;;;;;;;2.30;1.40;;;;;;;26.62;34.96;100316.08;103754;279;174169;-75
2023/08/09 10:50:18;;;;;;;2.90;1.30;;;;;;;26.43;34.91;100315.57;103738;278;171770;-74
2023/08/09 10:52:52;;;;;;;3.10;1.20;;;;;;;26.18;34.69;100312.48;103849;279;38334;-74
2023/08/09 10:55:32;;;;;;;1.80;1.20;;;;;;;26.16;35.17;100309.45;103702;278;174315;-74
2023/08/09 10:58:12;;;;;;;1.70;1.40;;;;;;;26.33;35.73;100308.94;103829;279;39554;-75
2023/08/09 11:00:48;;;;;;;4.30;1.30;;;;;;;26.50;35.90;100311.95;103840;279;39927;-75
2023/08/09 11:03:23;;;;;;;2.30;1.20;;;;;;;26.58;35.15;100305.04;103797;279;38237;-74
2023/08/09 11:05:58;;;;;;;4.50;1.00;;;;;;;26.56;35.23;100309.05;103844;279;38225;-74
2023/08/09 11:08:33;;;;;;;4.00;1.40;;;;;;;26.44;34.50;100309.41;103813;278;38821;-75
2023/08/09 11:11:10;;;;;;;1.60;1.00;;;;;;;26.27;34.49;100310.63;103735;279;39642;-75
2023/08/09 11:13:45;;;;;;;1.80;1.10;;;;;;;26.14;35.10;100305.85;103830;278;38489;-76
2023/08/09 11:16:20;;;;;;;2.20;1.10;;;;;;;26.05;35.06;100308.83;103853;279;39619;-74
2023/08/09 11:19:03;;;;;;;1.40;1.10;;;;;;;25.83;34.97;100307.84;103818;279;39000;-74
2023/08/09 11:21:44;;;;;;;1.80;1.10;;;;;;;25.62;34.69;100301.11;103859;278;40214;-75
2023/08/09 11:24:21;;;;;;;2.00;1.10;;;;;;;25.42;35.11;100300.61;103778;279;39478;-76
2023/08/09 11:26:57;;;;;;;2.10;1.10;;;;;;;25.28;35.35;100299.59;103860;267;38245;-76
2023/08/09 11:29:31;;;;;;;3.10;1.20;;;;;;;25.26;35.67;100294.56;103833;279;38423;-75
2023/08/09 11:32:07;;;;;;;2.20;1.20;;;;;;;25.25;35.69;100295.77;103847;278;38307;-75
2023/08/09 11:34:42;;;;;;;1.30;1.00;;;;;;;25.15;35.50;100296.04;103802;278;38591;-75
2023/08/09 11:37:16;;;;;;;1.30;1.00;;;;;;;24.98;35.26;100293.77;103775;279;39860;-74
2023/08/09 11:39:50;;;;;;;2.40;1.10;;;;;;;24.84;35.45;100293.16;103803;279;38349;-75
2023/08/09 11:42:27;;;;;;;1.90;1.30;;;;;;;24.71;36.04;100295.04;103777;279;39404;-75
2023/08/09 11:45:03;;;;;;;3.00;1.50;;;;;;;24.56;36.20;100293.43;103153;279;39284;-74
2023/08/09 11:47:37;;;;;;;1.50;1.00;;;;;;;24.39;36.49;100295.30;103831;279;38273;-74
2023/08/09 11:50:24;;;;;;;1.50;1.20;;;;;;;24.28;36.84;100296.35;103711;279;38269;-74
2023/08/09 11:52:59;;;;;;;1.90;1.20;;;;;;;24.25;37.08;100293.26;103884;279;40067;-74
2023/08/09 11:55:34;;;;;;;2.10;1.30;;;;;;;24.25;37.08;100295.48;103847;266;38522;-74
2023/08/09 11:58:10;;;;;;;1.10;1.00;;;;;;;24.29;38.22;100292.23;103871;279;39715;-73
2023/08/09 12:00:51;;;;;;;2.20;1.30;;;;;;;24.32;38.23;100295.10;103813;278;38383;-74
2023/08/09 12:03:26;;;;;;;3.00;1.30;;;;;;;24.32;38.19;100301.89;103818;279;38253;-74
2023/08/09 12:06:00;;;;;;;2.20;1.30;;;;;;;24.28;37.93;100303.28;103867;278;38246;-74
2023/08/09 12:08:46;;;;;;;2.90;1.50;;;;;;;24.19;38.05;100303.13;103821;278;38364;-74